createdAt,value
2019-02-07T00:01:56.626Z,32.38
2019-02-07T00:04:27.535Z,35.87
2019-02-07T00:06:57.410Z,34.92
2019-02-07T00:09:27.699Z,34.18
2019-02-07T00:11:57.601Z,33.20
2019-02-07T00:14:27.403Z,33.20
2019-02-07T00:16:57.468Z,33.20
2019-02-07T00:19:27.462Z,32.78
2019-02-07T00:21:58.286Z,31.90
2019-02-07T00:24:28.383Z,32.75
2019-02-07T00:26:58.440Z,32.23
2019-02-07T00:29:28.233Z,33.92
2019-02-07T00:31:58.116Z,33.83
2019-02-07T00:34:27.949Z,34.03
2019-02-07T00:36:57.858Z,31.45
2019-02-07T00:39:27.666Z,35.40
2019-02-07T00:41:57.481Z,31.37
2019-02-07T00:44:27.365Z,33.28
2019-02-07T00:46:57.179Z,31.25
2019-02-07T00:49:26.965Z,31.62
2019-02-07T00:51:57.266Z,32.10
2019-02-07T00:54:27.053Z,32.50
2019-02-07T00:56:57.734Z,32.95
2019-02-07T00:59:27.518Z,31.80
2019-02-07T01:01:57.322Z,33.38
2019-02-07T01:04:27.119Z,32.85
2019-02-07T01:06:57.007Z,31.12
2019-02-07T01:09:26.804Z,30.90
2019-02-07T01:11:56.594Z,32.28
2019-02-07T01:14:26.374Z,30.35
2019-02-07T01:16:56.185Z,30.97
2019-02-07T01:19:26.007Z,31.00
2019-02-07T01:21:55.777Z,31.23
2019-02-07T01:24:25.663Z,31.07
2019-02-07T01:26:55.477Z,32.05
2019-02-07T01:29:26.555Z,29.72
2019-02-07T01:31:56.365Z,32.13
2019-02-07T01:34:26.712Z,30.57
2019-02-07T01:36:56.525Z,30.30
2019-02-07T01:39:26.305Z,31.30
2019-02-07T01:41:56.203Z,31.05
2019-02-07T01:44:26.003Z,33.10
2019-02-07T01:46:55.781Z,32.83
2019-02-07T01:49:25.961Z,31.77
2019-02-07T01:51:55.729Z,33.13
2019-02-07T01:54:25.585Z,33.70
2019-02-07T01:56:55.450Z,31.55
2019-02-07T01:59:25.299Z,33.45
2019-02-07T02:01:55.182Z,33.05
2019-02-07T02:04:25.018Z,31.40
2019-02-07T02:06:54.899Z,31.73
2019-02-07T02:09:24.814Z,32.33
2019-02-07T02:11:54.657Z,33.45
2019-02-07T02:14:24.542Z,31.50
2019-02-07T02:16:54.394Z,32.13
2019-02-07T02:19:24.207Z,31.27
2019-02-07T02:21:54.029Z,31.33
2019-02-07T02:24:23.822Z,31.42
2019-02-07T02:26:53.705Z,32.20
2019-02-07T02:29:23.510Z,31.37
2019-02-07T02:31:53.841Z,32.73
2019-02-07T02:34:23.750Z,29.95
2019-02-07T02:36:53.524Z,31.25
2019-02-07T02:39:23.308Z,30.70
2019-02-07T02:41:53.124Z,31.55
2019-02-07T02:44:22.958Z,31.42
2019-02-07T02:46:53.176Z,30.82
2019-02-07T02:49:23.939Z,30.43
2019-02-07T02:51:53.717Z,31.70
2019-02-07T02:54:42.733Z,30.90
2019-02-07T02:57:12.911Z,31.37
2019-02-07T02:59:42.759Z,30.70
2019-02-07T03:02:37.863Z,35.63
2019-02-07T03:05:30.598Z,32.35
2019-02-07T03:08:15.750Z,30.08
2019-02-07T03:11:13.595Z,30.30
2019-02-07T03:14:02.451Z,32.33
2019-02-07T03:16:51.283Z,33.23
2019-02-07T03:19:38.905Z,30.37
2019-02-07T03:22:21.188Z,30.77
2019-02-07T03:25:08.588Z,30.72
2019-02-07T03:27:46.957Z,31.52
2019-02-07T03:30:41.921Z,32.17
2019-02-07T03:33:25.040Z,32.90
2019-02-07T03:36:01.218Z,33.65
2019-02-07T03:38:43.834Z,31.62
2019-02-07T03:41:31.838Z,33.85
2019-02-07T03:44:18.443Z,33.38
2019-02-07T03:47:13.006Z,32.48
2019-02-07T03:50:00.588Z,33.83
2019-02-07T03:52:53.741Z,31.15
2019-02-07T03:55:47.669Z,32.23
2019-02-07T03:58:39.281Z,30.80
2019-02-07T04:01:28.128Z,31.37
2019-02-07T04:04:09.990Z,31.20
2019-02-07T04:06:55.279Z,30.08
2019-02-07T04:09:46.942Z,30.08
2019-02-07T04:12:35.946Z,31.82
2019-02-07T04:15:43.654Z,29.87
2019-02-07T04:18:42.119Z,31.85
2019-02-07T04:21:23.314Z,30.80
2019-02-07T04:24:12.130Z,34.07
2019-02-07T04:27:10.777Z,30.60
2019-02-07T04:30:05.532Z,30.00
2019-02-07T04:33:00.197Z,29.35
2019-02-07T04:36:07.440Z,31.25
2019-02-07T04:39:08.702Z,30.37
2019-02-07T04:42:03.711Z,31.25
2019-02-07T04:44:50.703Z,30.02
2019-02-07T04:47:43.127Z,28.97
2019-02-07T04:50:30.954Z,29.80
2019-02-07T04:53:28.814Z,30.27
2019-02-07T04:56:20.534Z,30.43
2019-02-07T04:59:09.649Z,30.23
2019-02-07T05:01:58.495Z,31.57
2019-02-07T05:04:45.794Z,29.48
2019-02-07T05:07:34.621Z,30.70
2019-02-07T05:10:22.299Z,29.20
2019-02-07T05:13:20.141Z,32.88
2019-02-07T05:16:11.994Z,32.67
2019-02-07T05:18:59.494Z,47.17
2019-02-07T05:22:06.452Z,43.53
2019-02-07T05:24:46.467Z,33.97
2019-02-07T05:27:41.347Z,31.90
2019-02-07T05:30:34.749Z,30.57
2019-02-07T05:33:22.317Z,30.70
2019-02-07T05:36:20.917Z,32.55
2019-02-07T05:39:08.650Z,30.30
2019-02-07T05:42:00.517Z,28.98
2019-02-07T05:44:58.346Z,31.15
2019-02-07T05:47:50.090Z,29.50
2019-02-07T05:50:36.777Z,30.50
2019-02-07T05:53:17.595Z,29.02
2019-02-07T05:56:15.464Z,29.77
2019-02-07T05:59:01.175Z,30.02
2019-02-07T06:01:49.013Z,29.70
2019-02-07T06:04:31.147Z,29.12
2019-02-07T06:07:25.994Z,30.20
2019-02-07T06:10:23.510Z,28.38
2019-02-07T06:13:10.944Z,30.30
2019-02-07T06:15:58.424Z,29.50
2019-02-07T06:19:05.818Z,30.48
2019-02-07T06:21:48.777Z,31.40
2019-02-07T06:24:35.885Z,30.92
2019-02-07T06:27:23.706Z,29.82
2019-02-07T06:30:06.948Z,29.87
2019-02-07T06:32:58.502Z,29.40
2019-02-07T06:35:37.289Z,30.03
2019-02-07T06:38:28.872Z,30.82
2019-02-07T06:41:26.534Z,30.48
2019-02-07T06:44:13.915Z,31.25
2019-02-07T06:47:01.642Z,29.77
2019-02-07T06:49:49.266Z,30.40
2019-02-07T06:52:53.285Z,31.67
2019-02-07T06:55:48.086Z,31.07
2019-02-07T06:58:37.390Z,31.05
2019-02-07T07:01:29.010Z,32.63
2019-02-07T07:04:25.357Z,31.57
2019-02-07T07:07:14.205Z,29.67
2019-02-07T07:10:06.525Z,31.87
2019-02-07T07:13:02.191Z,30.97
2019-02-07T07:15:50.608Z,32.08
2019-02-07T07:18:38.224Z,33.78
2019-02-07T07:21:36.105Z,32.13
2019-02-07T07:24:23.149Z,31.07
2019-02-07T07:27:06.815Z,32.17
2019-02-07T07:29:58.450Z,31.75
2019-02-07T07:32:39.426Z,31.00
2019-02-07T07:35:32.334Z,33.65
2019-02-07T07:38:25.860Z,31.85
2019-02-07T07:41:17.933Z,34.20
2019-02-07T07:44:09.567Z,33.75
2019-02-07T07:46:57.408Z,33.63
2019-02-07T07:49:52.378Z,33.77
2019-02-07T07:52:41.251Z,32.90
2019-02-07T07:55:28.576Z,35.15
2019-02-07T07:58:26.393Z,35.28
2019-02-07T08:01:14.087Z,34.85
2019-02-07T08:04:05.943Z,33.20
2019-02-07T08:06:53.661Z,34.53
2019-02-07T08:09:49.094Z,35.73
2019-02-07T08:12:36.673Z,35.25
2019-02-07T08:15:26.706Z,36.08
2019-02-07T08:18:22.123Z,35.68
2019-02-07T08:21:10.998Z,37.43
2019-02-07T08:24:09.174Z,33.38
2019-02-07T08:26:57.057Z,34.50
2019-02-07T08:29:43.357Z,37.33
2019-02-07T08:32:22.893Z,34.70
2019-02-07T08:35:02.130Z,35.70
2019-02-07T08:37:43.178Z,35.58
2019-02-07T08:40:23.395Z,35.58
2019-02-07T08:43:30.595Z,34.95
2019-02-07T08:46:19.885Z,37.42
2019-02-07T08:49:23.663Z,35.67
2019-02-07T08:52:27.653Z,35.05
2019-02-07T08:55:10.666Z,34.33
2019-02-07T08:58:05.318Z,34.85
2019-02-07T09:00:51.133Z,35.13
2019-02-07T09:03:40.233Z,33.18
2019-02-07T09:06:29.024Z,33.38
2019-02-07T09:09:18.174Z,35.03
2019-02-07T09:12:07.030Z,34.53
2019-02-07T09:14:53.769Z,33.92
2019-02-07T09:17:48.678Z,31.73
2019-02-07T09:20:35.732Z,34.38
2019-02-07T09:23:43.086Z,32.80
2019-02-07T09:26:31.331Z,33.35
2019-02-07T09:29:19.077Z,36.60
2019-02-07T09:32:06.631Z,34.18
2019-02-07T09:34:57.145Z,36.13
2019-02-07T09:37:45.867Z,35.45
2019-02-07T09:40:34.742Z,36.00
2019-02-07T09:43:26.423Z,35.73
2019-02-07T09:46:27.367Z,37.38
2019-02-07T09:49:19.026Z,35.52
2019-02-07T09:52:02.866Z,35.03
2019-02-07T09:54:58.297Z,35.20
2019-02-07T09:57:41.477Z,33.38
2019-02-07T10:00:35.767Z,33.63
2019-02-07T10:03:30.505Z,33.13
2019-02-07T10:06:19.339Z,33.85
2019-02-07T10:09:12.976Z,35.50
2019-02-07T10:12:11.346Z,33.98
2019-02-07T10:15:00.185Z,35.23
2019-02-07T10:17:48.119Z,35.08
2019-02-07T10:20:48.471Z,33.45
2019-02-07T10:23:37.794Z,33.13
2019-02-07T10:26:25.506Z,33.50
2019-02-07T10:29:13.272Z,36.50
2019-02-07T10:31:54.606Z,34.40
2019-02-07T10:34:42.249Z,34.03
2019-02-07T10:37:34.166Z,36.73
2019-02-07T10:40:26.606Z,37.78
2019-02-07T10:43:16.106Z,37.35
2019-02-07T10:45:58.373Z,35.58
2019-02-07T10:48:50.252Z,35.05
2019-02-07T10:51:45.087Z,36.83
2019-02-07T10:54:49.351Z,34.78
2019-02-07T10:57:31.684Z,34.83
2019-02-07T11:00:25.746Z,35.33
2019-02-07T11:03:22.369Z,37.98
2019-02-07T11:06:10.124Z,34.30
2019-02-07T11:09:00.354Z,37.95
2019-02-07T11:11:40.767Z,34.65
2019-02-07T11:14:28.664Z,34.85
2019-02-07T11:17:17.483Z,35.92
2019-02-07T11:20:13.875Z,34.35
2019-02-07T11:23:02.704Z,37.75
2019-02-07T11:25:52.283Z,36.68
2019-02-07T11:28:46.080Z,32.73
2019-02-07T11:31:44.366Z,33.25
2019-02-07T11:34:32.139Z,33.98
2019-02-07T11:37:23.920Z,34.73
2019-02-07T11:40:25.447Z,34.27
2019-02-07T11:43:07.563Z,31.65
2019-02-07T11:46:11.490Z,34.05
2019-02-07T11:49:07.272Z,31.37
2019-02-07T11:51:55.659Z,31.42
2019-02-07T11:54:36.841Z,35.38
2019-02-07T11:57:24.597Z,34.98
2019-02-07T12:00:12.558Z,33.38
2019-02-07T12:03:04.420Z,31.15
2019-02-07T12:05:56.201Z,32.35
2019-02-07T12:08:44.098Z,31.40
2019-02-07T12:11:45.255Z,32.33
2019-02-07T12:14:32.710Z,31.90
2019-02-07T12:17:31.094Z,33.02
2019-02-07T12:20:19.923Z,30.82
2019-02-07T12:23:00.722Z,30.95
2019-02-07T12:25:58.141Z,31.00
2019-02-07T12:28:46.947Z,31.57
2019-02-07T12:31:31.310Z,30.15
2019-02-07T12:34:19.637Z,33.00
2019-02-07T12:37:02.274Z,30.62
2019-02-07T12:39:51.129Z,32.73
2019-02-07T12:42:39.652Z,31.30
2019-02-07T12:45:19.652Z,32.00
2019-02-07T12:48:07.275Z,32.55
2019-02-07T12:51:11.517Z,30.10
2019-02-07T12:54:00.357Z,32.50
2019-02-07T12:56:38.531Z,33.25
2019-02-07T12:59:28.666Z,32.75
2019-02-07T13:02:29.605Z,31.97
2019-02-07T13:05:17.476Z,30.40
2019-02-07T13:08:13.750Z,31.80
2019-02-07T13:11:08.813Z,33.50
2019-02-07T13:13:50.212Z,31.05
2019-02-07T13:16:41.835Z,31.27
2019-02-07T13:19:40.219Z,30.48
2019-02-07T13:22:19.854Z,32.73
2019-02-07T13:25:07.385Z,30.45
2019-02-07T13:27:56.229Z,30.77
2019-02-07T13:30:44.425Z,30.17
2019-02-07T13:33:21.606Z,30.17
2019-02-07T13:36:05.690Z,33.40
2019-02-07T13:38:54.886Z,31.90
2019-02-07T13:41:59.269Z,31.00
2019-02-07T13:44:48.099Z,31.85
2019-02-07T13:47:35.799Z,32.95
2019-02-07T13:50:32.625Z,30.43
2019-02-07T13:53:26.652Z,31.02
2019-02-07T13:56:06.066Z,30.90
2019-02-07T13:59:07.305Z,31.55
2019-02-07T14:02:08.253Z,31.10
2019-02-07T14:04:43.813Z,31.77
2019-02-07T14:07:26.621Z,31.70
2019-02-07T14:10:15.461Z,33.42
2019-02-07T14:13:07.055Z,34.07
2019-02-07T14:15:56.977Z,34.40
2019-02-07T14:18:51.676Z,33.85
2019-02-07T14:21:46.366Z,32.73
2019-02-07T14:24:47.498Z,33.85
2019-02-07T14:27:26.537Z,33.75
2019-02-07T14:30:05.979Z,33.33
2019-02-07T14:32:54.810Z,34.25
2019-02-07T14:35:52.820Z,35.23
2019-02-07T14:38:34.557Z,37.63
2019-02-07T14:41:29.819Z,36.03
2019-02-07T14:44:26.752Z,36.88
2019-02-07T14:46:57.691Z,36.42
2019-02-07T14:49:27.526Z,39.08
2019-02-07T14:51:57.791Z,37.67
2019-02-07T14:54:27.614Z,35.50
2019-02-07T14:56:57.457Z,35.53
2019-02-07T14:59:27.251Z,37.00
2019-02-07T15:01:58.026Z,36.40
2019-02-07T15:04:27.865Z,35.35
2019-02-07T15:06:57.788Z,36.45
2019-02-07T15:09:27.597Z,36.50
2019-02-07T15:11:57.479Z,35.08
2019-02-07T15:14:27.273Z,34.83
2019-02-07T15:16:57.122Z,35.10
2019-02-07T15:19:26.926Z,36.67
2019-02-07T15:21:57.914Z,34.58
2019-02-07T15:24:27.826Z,35.58
2019-02-07T15:26:57.834Z,36.23
2019-02-07T15:29:27.739Z,36.17
2019-02-07T15:32:00.780Z,36.53
2019-02-07T15:34:31.938Z,37.53
2019-02-07T15:37:04.842Z,37.40
2019-02-07T15:39:34.601Z,38.17
2019-02-07T15:42:04.939Z,38.60
2019-02-07T15:44:37.343Z,40.48
2019-02-07T15:47:08.927Z,39.58
2019-02-07T15:49:40.164Z,37.73
2019-02-07T15:52:10.721Z,38.33
2019-02-07T15:54:40.674Z,39.05
2019-02-07T15:57:10.516Z,40.38
2019-02-07T15:59:45.600Z,39.48
2019-02-07T16:02:20.244Z,38.97
2019-02-07T16:04:50.138Z,42.30
2019-02-07T16:07:19.985Z,40.23
2019-02-07T16:09:49.991Z,38.02
2019-02-07T16:12:19.900Z,37.48
2019-02-07T16:14:49.785Z,37.67
2019-02-07T16:17:19.671Z,37.75
2019-02-07T16:19:49.579Z,38.15
2019-02-07T16:22:19.504Z,39.00
2019-02-07T16:24:49.323Z,38.73
2019-02-07T16:27:19.565Z,40.52
2019-02-07T16:29:49.521Z,38.40
2019-02-07T16:32:19.458Z,38.35
2019-02-07T16:34:49.253Z,39.60
2019-02-07T16:37:22.213Z,41.37
2019-02-07T16:39:53.493Z,41.45
2019-02-07T16:42:23.568Z,38.55
2019-02-07T16:44:53.460Z,39.90
2019-02-07T16:47:24.341Z,40.85
2019-02-07T16:49:54.162Z,43.10
2019-02-07T16:52:23.985Z,45.63
2019-02-07T16:54:54.148Z,42.53
2019-02-07T16:57:27.214Z,44.73
2019-02-07T16:59:57.025Z,41.08
2019-02-07T17:02:26.868Z,40.25
2019-02-07T17:04:56.782Z,39.27
2019-02-07T17:07:26.594Z,40.98
2019-02-07T17:09:56.583Z,41.33
2019-02-07T17:12:26.428Z,39.38
2019-02-07T17:14:56.295Z,40.00
2019-02-07T17:17:26.256Z,38.47
2019-02-07T17:19:56.103Z,40.73
2019-02-07T17:22:26.528Z,43.00
2019-02-07T17:24:56.456Z,39.27
2019-02-07T17:27:26.370Z,39.03
2019-02-07T17:29:56.414Z,41.30
2019-02-07T17:32:26.306Z,39.20
2019-02-07T17:34:56.154Z,37.53
2019-02-07T17:37:26.482Z,39.60
2019-02-07T17:39:56.418Z,42.67
2019-02-07T17:42:26.384Z,40.70
2019-02-07T17:44:56.234Z,36.55
2019-02-07T17:47:26.127Z,33.33
2019-02-07T17:49:56.025Z,31.57
2019-02-07T17:52:26.218Z,27.52
2019-02-07T17:54:56.856Z,28.27
2019-02-07T17:57:26.740Z,25.65
2019-02-07T17:59:56.582Z,24.23
2019-02-07T18:02:26.571Z,23.02
2019-02-07T18:04:59.043Z,24.05
2019-02-07T18:07:29.077Z,22.67
2019-02-07T18:09:59.016Z,23.25
2019-02-07T18:12:28.972Z,22.70
2019-02-07T18:14:58.884Z,21.60
2019-02-07T18:17:28.757Z,21.02
2019-02-07T18:19:58.686Z,20.70
2019-02-07T18:22:28.544Z,21.50
2019-02-07T18:24:58.490Z,19.80
2019-02-07T18:27:28.466Z,19.82
2019-02-07T18:30:02.696Z,21.70
2019-02-07T18:32:32.633Z,22.70
2019-02-07T18:35:02.772Z,20.10
2019-02-07T18:37:32.606Z,20.48
2019-02-07T18:40:02.414Z,20.10
2019-02-07T18:42:33.921Z,19.60
2019-02-07T18:45:06.441Z,19.50
2019-02-07T18:47:36.665Z,20.60
2019-02-07T18:50:08.653Z,19.82
2019-02-07T18:52:38.455Z,19.50
2019-02-07T18:55:08.790Z,20.62
2019-02-07T18:57:38.673Z,19.57
2019-02-07T19:00:11.792Z,20.45
2019-02-07T19:02:43.904Z,20.85
2019-02-07T19:05:15.675Z,20.88
2019-02-07T19:07:45.707Z,20.88
2019-02-07T19:10:18.193Z,20.90
2019-02-07T19:12:48.320Z,20.05
2019-02-07T19:15:39.651Z,21.15
2019-02-07T19:18:09.609Z,20.95
2019-02-07T19:20:39.781Z,20.80
2019-02-07T19:23:09.719Z,20.17
2019-02-07T19:25:40.314Z,21.70
2019-02-07T19:28:10.686Z,20.25
2019-02-07T19:30:43.448Z,20.30
2019-02-07T19:33:13.361Z,20.82
2019-02-07T19:35:43.453Z,20.85
2019-02-07T19:38:13.437Z,20.95
2019-02-07T19:40:43.664Z,21.00
2019-02-07T19:43:13.564Z,22.58
2019-02-07T19:45:43.448Z,20.15
2019-02-07T19:48:13.553Z,20.48
2019-02-07T19:50:43.347Z,20.92
2019-02-07T19:53:13.378Z,20.12
2019-02-07T19:55:43.387Z,23.73
2019-02-07T19:58:13.370Z,21.12
2019-02-07T20:00:43.298Z,20.73
2019-02-07T20:03:13.275Z,20.70
2019-02-07T20:05:43.129Z,19.85
2019-02-07T20:08:12.991Z,21.30
2019-02-07T20:10:42.875Z,22.17
2019-02-07T20:13:12.774Z,22.32
2019-02-07T20:15:43.147Z,21.23
2019-02-07T20:18:13.052Z,21.03
2019-02-07T20:20:43.047Z,19.77
2019-02-07T20:23:12.979Z,20.80
2019-02-07T20:25:43.178Z,18.70
2019-02-07T20:28:13.181Z,20.60
2019-02-07T20:30:45.799Z,21.15
2019-02-07T20:33:15.889Z,20.15
2019-02-07T20:35:45.833Z,20.10
2019-02-07T20:38:15.725Z,20.32
2019-02-07T20:40:46.314Z,21.07
2019-02-07T20:43:16.287Z,20.48
2019-02-07T20:45:46.243Z,23.10
2019-02-07T20:48:16.149Z,20.40
2019-02-07T20:50:46.189Z,18.85
2019-02-07T20:53:17.623Z,19.55
2019-02-07T20:55:50.167Z,21.25
2019-02-07T20:58:20.133Z,20.37
2019-02-07T21:00:50.157Z,20.90
2019-02-07T21:03:20.026Z,19.55
2019-02-07T21:05:50.272Z,19.15
2019-02-07T21:08:20.528Z,20.68
2019-02-07T21:10:50.705Z,20.65
2019-02-07T21:13:20.668Z,18.80
2019-02-07T21:15:50.957Z,21.30
2019-02-07T21:18:21.039Z,19.45
2019-02-07T21:20:51.636Z,18.42
2019-02-07T21:23:21.556Z,18.93
2019-02-07T21:25:52.618Z,20.17
2019-02-07T21:28:22.585Z,19.42
2019-02-07T21:30:52.515Z,18.87
2019-02-07T21:33:22.419Z,19.67
2019-02-07T21:35:52.326Z,16.70
2019-02-07T21:38:22.298Z,19.75
2019-02-07T21:40:52.523Z,18.10
2019-02-07T21:43:22.463Z,15.95
2019-02-07T21:45:52.453Z,18.37
2019-02-07T21:48:22.300Z,16.73
2019-02-07T21:50:52.241Z,18.82
2019-02-07T21:53:22.250Z,16.75
2019-02-07T21:55:52.191Z,16.62
2019-02-07T21:58:22.115Z,15.83
2019-02-07T22:00:52.285Z,21.52
2019-02-07T22:03:22.266Z,17.52
2019-02-07T22:05:52.381Z,17.45
2019-02-07T22:08:22.595Z,19.35
2019-02-07T22:10:53.006Z,16.42
2019-02-07T22:13:23.031Z,16.25
2019-02-07T22:15:54.119Z,16.70
2019-02-07T22:18:24.030Z,17.07
2019-02-07T22:20:53.887Z,16.05
2019-02-07T22:23:23.790Z,18.32
2019-02-07T22:25:53.874Z,16.37
2019-02-07T22:28:23.839Z,16.62
2019-02-07T22:30:53.740Z,15.75
2019-02-07T22:33:23.592Z,15.85
2019-02-07T22:35:53.431Z,16.67
2019-02-07T22:38:25.058Z,17.23
2019-02-07T22:40:55.050Z,18.02
2019-02-07T22:43:24.976Z,17.17
2019-02-07T22:45:54.866Z,15.32
2019-02-07T22:48:24.786Z,17.57
2019-02-07T22:50:55.621Z,15.48
2019-02-07T22:53:25.548Z,15.05
2019-02-07T22:55:55.445Z,16.57
2019-02-07T22:58:25.381Z,15.53
2019-02-07T23:01:28.555Z,17.07
2019-02-07T23:04:04.125Z,13.72
2019-02-07T23:06:34.073Z,15.15
2019-02-07T23:09:05.472Z,15.80
2019-02-07T23:11:35.268Z,14.03
2019-02-07T23:14:06.237Z,15.55
2019-02-07T23:16:36.169Z,15.10
2019-02-07T23:19:07.427Z,12.80
2019-02-07T23:21:37.677Z,14.93
2019-02-07T23:24:07.506Z,12.30
2019-02-07T23:26:37.575Z,13.00
2019-02-07T23:29:07.833Z,14.18
2019-02-07T23:31:37.644Z,14.85
2019-02-07T23:34:07.712Z,14.45
2019-02-07T23:36:39.120Z,14.07
2019-02-07T23:39:10.617Z,16.62
2019-02-07T23:41:40.740Z,14.10
2019-02-07T23:44:13.871Z,15.32
2019-02-07T23:46:43.738Z,14.90
2019-02-07T23:49:13.591Z,12.83
2019-02-07T23:51:43.455Z,12.98
2019-02-07T23:54:13.291Z,13.88
2019-02-07T23:56:43.450Z,15.50
2019-02-07T23:59:14.317Z,14.95
